sensor_id;sensor_type;location;lat;lon;timestamp;P1;durP1;ratioP1;P2;durP2;ratioP2
6840;SDS011;3458;53.678;14.080;2022-11-11T00:00:32;16.77;;;3.20;;
6840;SDS011;3458;53.678;14.080;2022-11-11T00:02:58;18.53;;;3.27;;
6840;SDS011;3458;53.678;14.080;2022-11-11T00:05:24;11.57;;;3.20;;
6840;SDS011;3458;53.678;14.080;2022-11-11T00:07:51;14.83;;;2.47;;
6840;SDS011;3458;53.678;14.080;2022-11-11T00:10:17;15.27;;;2.97;;
6840;SDS011;3458;53.678;14.080;2022-11-11T00:12:43;16.57;;;2.83;;
6840;SDS011;3458;53.678;14.080;2022-11-11T00:15:08;20.80;;;3.47;;
6840;SDS011;3458;53.678;14.080;2022-11-11T00:17:34;4.80;;;2.23;;
6840;SDS011;3458;53.678;14.080;2022-11-11T00:20:18;8.77;;;2.80;;
6840;SDS011;3458;53.678;14.080;2022-11-11T00:23:02;22.47;;;3.03;;
6840;SDS011;3458;53.678;14.080;2022-11-11T00:25:53;12.00;;;3.47;;
6840;SDS011;3458;53.678;14.080;2022-11-11T00:28:18;15.50;;;3.27;;
6840;SDS011;3458;53.678;14.080;2022-11-11T00:30:44;7.73;;;2.63;;
6840;SDS011;3458;53.678;14.080;2022-11-11T00:33:10;5.70;;;2.43;;
6840;SDS011;3458;53.678;14.080;2022-11-11T00:35:36;7.03;;;2.77;;
6840;SDS011;3458;53.678;14.080;2022-11-11T00:38:19;6.07;;;2.80;;
6840;SDS011;3458;53.678;14.080;2022-11-11T00:41:04;17.97;;;3.30;;
6840;SDS011;3458;53.678;14.080;2022-11-11T00:43:29;6.30;;;2.50;;
6840;SDS011;3458;53.678;14.080;2022-11-11T00:45:55;10.17;;;3.10;;
6840;SDS011;3458;53.678;14.080;2022-11-11T00:48:41;12.67;;;3.70;;
6840;SDS011;3458;53.678;14.080;2022-11-11T00:51:25;14.60;;;2.87;;
6840;SDS011;3458;53.678;14.080;2022-11-11T00:53:51;19.60;;;2.67;;
6840;SDS011;3458;53.678;14.080;2022-11-11T00:56:17;22.53;;;5.83;;
6840;SDS011;3458;53.678;14.080;2022-11-11T00:58:43;9.00;;;2.93;;
6840;SDS011;3458;53.678;14.080;2022-11-11T01:01:08;16.30;;;5.20;;
6840;SDS011;3458;53.678;14.080;2022-11-11T01:03:34;15.10;;;3.53;;
6840;SDS011;3458;53.678;14.080;2022-11-11T01:06:00;9.10;;;2.77;;
6840;SDS011;3458;53.678;14.080;2022-11-11T01:08:26;11.23;;;3.27;;
6840;SDS011;3458;53.678;14.080;2022-11-11T01:10:52;9.00;;;2.50;;
6840;SDS011;3458;53.678;14.080;2022-11-11T01:13:24;12.77;;;2.80;;
6840;SDS011;3458;53.678;14.080;2022-11-11T01:15:51;18.57;;;3.00;;
6840;SDS011;3458;53.678;14.080;2022-11-11T01:18:19;10.53;;;2.27;;
6840;SDS011;3458;53.678;14.080;2022-11-11T01:20:47;8.90;;;2.90;;
6840;SDS011;3458;53.678;14.080;2022-11-11T01:23:20;11.23;;;3.40;;
6840;SDS011;3458;53.678;14.080;2022-11-11T01:25:46;9.10;;;2.53;;
6840;SDS011;3458;53.678;14.080;2022-11-11T01:28:11;8.40;;;2.60;;
6840;SDS011;3458;53.678;14.080;2022-11-11T01:30:37;10.37;;;3.00;;
6840;SDS011;3458;53.678;14.080;2022-11-11T01:33:03;12.20;;;3.00;;
6840;SDS011;3458;53.678;14.080;2022-11-11T01:35:28;7.10;;;3.20;;
6840;SDS011;3458;53.678;14.080;2022-11-11T01:37:55;17.00;;;2.80;;
6840;SDS011;3458;53.678;14.080;2022-11-11T01:40:21;11.97;;;2.43;;
6840;SDS011;3458;53.678;14.080;2022-11-11T01:42:47;25.87;;;3.30;;
6840;SDS011;3458;53.678;14.080;2022-11-11T01:48:10;20.53;;;2.23;;
6840;SDS011;3458;53.678;14.080;2022-11-11T01:51:14;11.60;;;2.27;;
6840;SDS011;3458;53.678;14.080;2022-11-11T01:53:45;8.83;;;3.10;;
6840;SDS011;3458;53.678;14.080;2022-11-11T01:56:15;8.70;;;2.73;;
6840;SDS011;3458;53.678;14.080;2022-11-11T01:58:41;8.33;;;2.60;;
6840;SDS011;3458;53.678;14.080;2022-11-11T02:01:07;15.93;;;3.30;;
6840;SDS011;3458;53.678;14.080;2022-11-11T02:03:37;11.47;;;2.90;;
6840;SDS011;3458;53.678;14.080;2022-11-11T02:06:05;8.40;;;2.67;;
6840;SDS011;3458;53.678;14.080;2022-11-11T02:08:32;9.20;;;2.30;;
6840;SDS011;3458;53.678;14.080;2022-11-11T02:11:08;9.57;;;2.53;;
6840;SDS011;3458;53.678;14.080;2022-11-11T02:13:41;8.57;;;2.40;;
6840;SDS011;3458;53.678;14.080;2022-11-11T02:16:26;8.10;;;2.33;;
6840;SDS011;3458;53.678;14.080;2022-11-11T02:18:52;12.60;;;2.73;;
6840;SDS011;3458;53.678;14.080;2022-11-11T02:21:43;9.10;;;3.07;;
6840;SDS011;3458;53.678;14.080;2022-11-11T02:24:08;10.63;;;2.80;;
6840;SDS011;3458;53.678;14.080;2022-11-11T02:26:38;15.97;;;2.97;;
6840;SDS011;3458;53.678;14.080;2022-11-11T02:29:07;11.80;;;3.20;;
6840;SDS011;3458;53.678;14.080;2022-11-11T02:31:38;19.00;;;3.40;;
6840;SDS011;3458;53.678;14.080;2022-11-11T02:34:04;6.03;;;2.73;;
6840;SDS011;3458;53.678;14.080;2022-11-11T02:36:29;12.37;;;2.53;;
6840;SDS011;3458;53.678;14.080;2022-11-11T02:38:55;5.40;;;3.00;;
6840;SDS011;3458;53.678;14.080;2022-11-11T02:41:20;8.20;;;2.40;;
6840;SDS011;3458;53.678;14.080;2022-11-11T02:44:04;10.60;;;2.90;;
6840;SDS011;3458;53.678;14.080;2022-11-11T02:46:30;9.97;;;3.23;;
6840;SDS011;3458;53.678;14.080;2022-11-11T02:48:55;8.30;;;3.40;;
6840;SDS011;3458;53.678;14.080;2022-11-11T02:51:21;7.83;;;3.50;;
6840;SDS011;3458;53.678;14.080;2022-11-11T02:53:46;8.43;;;3.53;;
6840;SDS011;3458;53.678;14.080;2022-11-11T02:56:12;13.50;;;3.70;;
6840;SDS011;3458;53.678;14.080;2022-11-11T02:58:57;11.57;;;3.30;;
6840;SDS011;3458;53.678;14.080;2022-11-11T03:01:23;12.10;;;3.60;;
6840;SDS011;3458;53.678;14.080;2022-11-11T03:03:48;12.93;;;3.33;;
6840;SDS011;3458;53.678;14.080;2022-11-11T03:06:14;6.90;;;3.47;;
6840;SDS011;3458;53.678;14.080;2022-11-11T03:08:39;8.10;;;3.90;;
6840;SDS011;3458;53.678;14.080;2022-11-11T03:11:05;12.90;;;3.40;;
6840;SDS011;3458;53.678;14.080;2022-11-11T03:13:30;11.23;;;3.40;;
6840;SDS011;3458;53.678;14.080;2022-11-11T03:15:56;20.87;;;3.83;;
6840;SDS011;3458;53.678;14.080;2022-11-11T03:18:21;7.67;;;3.37;;
6840;SDS011;3458;53.678;14.080;2022-11-11T03:20:47;23.37;;;3.73;;
6840;SDS011;3458;53.678;14.080;2022-11-11T03:23:31;18.43;;;3.80;;
6840;SDS011;3458;53.678;14.080;2022-11-11T03:25:56;14.67;;;4.10;;
6840;SDS011;3458;53.678;14.080;2022-11-11T03:28:22;10.73;;;4.03;;
6840;SDS011;3458;53.678;14.080;2022-11-11T03:30:49;10.27;;;3.70;;
6840;SDS011;3458;53.678;14.080;2022-11-11T03:33:15;12.50;;;3.93;;
6840;SDS011;3458;53.678;14.080;2022-11-11T03:35:42;21.03;;;6.20;;
6840;SDS011;3458;53.678;14.080;2022-11-11T03:38:12;17.57;;;4.17;;
6840;SDS011;3458;53.678;14.080;2022-11-11T03:40:51;13.53;;;3.87;;
6840;SDS011;3458;53.678;14.080;2022-11-11T03:43:18;10.33;;;3.17;;
6840;SDS011;3458;53.678;14.080;2022-11-11T03:45:45;13.53;;;4.70;;
6840;SDS011;3458;53.678;14.080;2022-11-11T03:48:12;13.03;;;4.20;;
6840;SDS011;3458;53.678;14.080;2022-11-11T03:50:38;8.83;;;4.97;;
6840;SDS011;3458;53.678;14.080;2022-11-11T03:53:04;14.67;;;4.50;;
6840;SDS011;3458;53.678;14.080;2022-11-11T03:55:29;7.50;;;4.70;;
6840;SDS011;3458;53.678;14.080;2022-11-11T03:57:55;12.93;;;4.57;;
6840;SDS011;3458;53.678;14.080;2022-11-11T04:00:22;12.70;;;5.27;;
6840;SDS011;3458;53.678;14.080;2022-11-11T04:02:49;11.30;;;5.53;;
6840;SDS011;3458;53.678;14.080;2022-11-11T04:05:34;17.57;;;4.47;;
6840;SDS011;3458;53.678;14.080;2022-11-11T04:08:18;15.23;;;5.20;;
6840;SDS011;3458;53.678;14.080;2022-11-11T04:11:11;14.50;;;5.07;;
6840;SDS011;3458;53.678;14.080;2022-11-11T04:13:39;10.13;;;5.00;;
6840;SDS011;3458;53.678;14.080;2022-11-11T04:16:25;11.83;;;5.30;;
6840;SDS011;3458;53.678;14.080;2022-11-11T04:18:51;17.30;;;6.70;;
6840;SDS011;3458;53.678;14.080;2022-11-11T04:21:35;9.10;;;5.83;;
6840;SDS011;3458;53.678;14.080;2022-11-11T04:24:07;17.13;;;5.70;;
6840;SDS011;3458;53.678;14.080;2022-11-11T04:26:53;12.07;;;5.50;;
6840;SDS011;3458;53.678;14.080;2022-11-11T04:29:20;11.10;;;5.17;;
6840;SDS011;3458;53.678;14.080;2022-11-11T04:32:37;11.50;;;6.10;;
6840;SDS011;3458;53.678;14.080;2022-11-11T04:35:00;11.63;;;6.47;;
6840;SDS011;3458;53.678;14.080;2022-11-11T04:37:31;25.57;;;6.60;;
6840;SDS011;3458;53.678;14.080;2022-11-11T04:39:59;14.30;;;5.47;;
6840;SDS011;3458;53.678;14.080;2022-11-11T04:42:43;18.00;;;7.13;;
6840;SDS011;3458;53.678;14.080;2022-11-11T04:45:09;11.47;;;6.27;;
6840;SDS011;3458;53.678;14.080;2022-11-11T04:48:01;13.17;;;5.53;;
6840;SDS011;3458;53.678;14.080;2022-11-11T04:52:54;12.67;;;5.20;;
6840;SDS011;3458;53.678;14.080;2022-11-11T04:55:20;13.10;;;5.70;;
6840;SDS011;3458;53.678;14.080;2022-11-11T04:58:04;13.00;;;6.10;;
6840;SDS011;3458;53.678;14.080;2022-11-11T05:00:30;11.00;;;5.00;;
6840;SDS011;3458;53.678;14.080;2022-11-11T05:02:55;9.50;;;5.77;;
6840;SDS011;3458;53.678;14.080;2022-11-11T05:05:40;7.80;;;5.50;;
6840;SDS011;3458;53.678;14.080;2022-11-11T05:08:28;9.67;;;5.70;;
6840;SDS011;3458;53.678;14.080;2022-11-11T05:11:13;9.50;;;5.10;;
6840;SDS011;3458;53.678;14.080;2022-11-11T05:13:39;9.10;;;5.07;;
6840;SDS011;3458;53.678;14.080;2022-11-11T05:16:24;11.97;;;5.00;;
6840;SDS011;3458;53.678;14.080;2022-11-11T05:19:11;15.83;;;5.40;;
6840;SDS011;3458;53.678;14.080;2022-11-11T05:21:56;10.93;;;4.50;;
6840;SDS011;3458;53.678;14.080;2022-11-11T05:24:29;11.13;;;4.93;;
6840;SDS011;3458;53.678;14.080;2022-11-11T05:27:13;11.77;;;5.07;;
6840;SDS011;3458;53.678;14.080;2022-11-11T05:29:38;9.43;;;4.60;;
6840;SDS011;3458;53.678;14.080;2022-11-11T05:32:05;21.47;;;5.00;;
6840;SDS011;3458;53.678;14.080;2022-11-11T05:34:32;12.20;;;4.80;;
6840;SDS011;3458;53.678;14.080;2022-11-11T05:36:57;12.67;;;5.30;;
6840;SDS011;3458;53.678;14.080;2022-11-11T05:39:23;10.70;;;4.93;;
6840;SDS011;3458;53.678;14.080;2022-11-11T05:41:48;10.50;;;5.07;;
6840;SDS011;3458;53.678;14.080;2022-11-11T05:44:14;8.37;;;4.47;;
6840;SDS011;3458;53.678;14.080;2022-11-11T05:46:39;13.27;;;4.60;;
6840;SDS011;3458;53.678;14.080;2022-11-11T05:49:05;9.57;;;5.10;;
6840;SDS011;3458;53.678;14.080;2022-11-11T05:51:39;10.83;;;4.80;;
6840;SDS011;3458;53.678;14.080;2022-11-11T05:54:05;21.03;;;5.90;;
6840;SDS011;3458;53.678;14.080;2022-11-11T05:56:30;14.77;;;5.10;;
6840;SDS011;3458;53.678;14.080;2022-11-11T05:58:56;13.50;;;5.20;;
6840;SDS011;3458;53.678;14.080;2022-11-11T06:01:22;17.00;;;4.60;;
6840;SDS011;3458;53.678;14.080;2022-11-11T06:03:47;11.93;;;5.33;;
6840;SDS011;3458;53.678;14.080;2022-11-11T06:06:13;14.73;;;4.50;;
6840;SDS011;3458;53.678;14.080;2022-11-11T06:08:38;12.53;;;4.50;;
6840;SDS011;3458;53.678;14.080;2022-11-11T06:11:04;10.93;;;4.40;;
6840;SDS011;3458;53.678;14.080;2022-11-11T06:13:30;13.43;;;5.10;;
6840;SDS011;3458;53.678;14.080;2022-11-11T06:15:55;15.10;;;4.67;;
6840;SDS011;3458;53.678;14.080;2022-11-11T06:18:21;14.63;;;4.20;;
6840;SDS011;3458;53.678;14.080;2022-11-11T06:20:57;8.93;;;4.10;;
6840;SDS011;3458;53.678;14.080;2022-11-11T06:23:23;18.30;;;5.00;;
6840;SDS011;3458;53.678;14.080;2022-11-11T06:25:50;11.37;;;4.73;;
6840;SDS011;3458;53.678;14.080;2022-11-11T06:28:34;10.50;;;4.50;;
6840;SDS011;3458;53.678;14.080;2022-11-11T06:31:00;14.43;;;4.00;;
6840;SDS011;3458;53.678;14.080;2022-11-11T06:33:26;9.03;;;4.40;;
6840;SDS011;3458;53.678;14.080;2022-11-11T06:35:51;12.90;;;4.80;;
6840;SDS011;3458;53.678;14.080;2022-11-11T06:38:17;12.97;;;4.90;;
6840;SDS011;3458;53.678;14.080;2022-11-11T06:40:43;15.10;;;4.97;;
6840;SDS011;3458;53.678;14.080;2022-11-11T06:43:09;13.20;;;5.30;;
6840;SDS011;3458;53.678;14.080;2022-11-11T06:45:35;16.63;;;7.43;;
6840;SDS011;3458;53.678;14.080;2022-11-11T06:48:02;11.63;;;4.80;;
6840;SDS011;3458;53.678;14.080;2022-11-11T06:50:28;10.90;;;4.60;;
6840;SDS011;3458;53.678;14.080;2022-11-11T06:52:54;13.60;;;4.60;;
6840;SDS011;3458;53.678;14.080;2022-11-11T06:55:20;9.07;;;3.93;;
6840;SDS011;3458;53.678;14.080;2022-11-11T06:57:46;13.73;;;4.40;;
6840;SDS011;3458;53.678;14.080;2022-11-11T07:00:11;16.77;;;4.33;;
6840;SDS011;3458;53.678;14.080;2022-11-11T07:02:37;11.33;;;4.97;;
6840;SDS011;3458;53.678;14.080;2022-11-11T07:05:03;18.97;;;4.77;;
6840;SDS011;3458;53.678;14.080;2022-11-11T07:07:29;13.23;;;4.43;;
6840;SDS011;3458;53.678;14.080;2022-11-11T07:09:55;19.83;;;4.70;;
6840;SDS011;3458;53.678;14.080;2022-11-11T07:12:21;7.07;;;3.40;;
6840;SDS011;3458;53.678;14.080;2022-11-11T07:14:47;14.40;;;4.53;;
6840;SDS011;3458;53.678;14.080;2022-11-11T07:17:12;8.10;;;4.40;;
6840;SDS011;3458;53.678;14.080;2022-11-11T07:19:38;8.53;;;4.57;;
6840;SDS011;3458;53.678;14.080;2022-11-11T07:22:03;11.70;;;5.17;;
6840;SDS011;3458;53.678;14.080;2022-11-11T07:24:29;8.20;;;4.77;;
6840;SDS011;3458;53.678;14.080;2022-11-11T07:26:55;8.07;;;4.50;;
6840;SDS011;3458;53.678;14.080;2022-11-11T07:29:20;8.60;;;5.00;;
6840;SDS011;3458;53.678;14.080;2022-11-11T07:31:46;11.60;;;4.77;;
6840;SDS011;3458;53.678;14.080;2022-11-11T07:34:11;12.13;;;5.57;;
6840;SDS011;3458;53.678;14.080;2022-11-11T07:36:37;9.63;;;4.80;;
6840;SDS011;3458;53.678;14.080;2022-11-11T07:39:02;11.00;;;4.17;;
6840;SDS011;3458;53.678;14.080;2022-11-11T07:41:28;8.97;;;4.60;;
6840;SDS011;3458;53.678;14.080;2022-11-11T07:43:54;12.40;;;4.57;;
6840;SDS011;3458;53.678;14.080;2022-11-11T07:46:19;13.80;;;4.70;;
6840;SDS011;3458;53.678;14.080;2022-11-11T07:48:45;17.67;;;5.30;;
6840;SDS011;3458;53.678;14.080;2022-11-11T07:51:10;13.00;;;4.67;;
6840;SDS011;3458;53.678;14.080;2022-11-11T07:53:36;12.50;;;5.10;;
6840;SDS011;3458;53.678;14.080;2022-11-11T07:56:01;25.93;;;5.23;;
6840;SDS011;3458;53.678;14.080;2022-11-11T07:58:27;11.47;;;4.27;;
6840;SDS011;3458;53.678;14.080;2022-11-11T08:00:52;13.33;;;4.37;;
6840;SDS011;3458;53.678;14.080;2022-11-11T08:03:18;12.80;;;5.50;;
6840;SDS011;3458;53.678;14.080;2022-11-11T08:05:44;9.03;;;4.87;;
6840;SDS011;3458;53.678;14.080;2022-11-11T08:08:10;11.00;;;4.80;;
6840;SDS011;3458;53.678;14.080;2022-11-11T08:10:36;7.47;;;4.60;;
6840;SDS011;3458;53.678;14.080;2022-11-11T08:13:01;8.53;;;4.30;;
6840;SDS011;3458;53.678;14.080;2022-11-11T08:15:46;10.00;;;4.70;;
6840;SDS011;3458;53.678;14.080;2022-11-11T08:18:12;7.57;;;4.23;;
6840;SDS011;3458;53.678;14.080;2022-11-11T08:20:37;10.80;;;4.40;;
6840;SDS011;3458;53.678;14.080;2022-11-11T08:23:03;14.50;;;4.60;;
6840;SDS011;3458;53.678;14.080;2022-11-11T08:25:29;11.27;;;4.53;;
6840;SDS011;3458;53.678;14.080;2022-11-11T08:27:59;13.37;;;4.43;;
6840;SDS011;3458;53.678;14.080;2022-11-11T08:30:25;8.90;;;4.80;;
6840;SDS011;3458;53.678;14.080;2022-11-11T08:35:23;19.00;;;4.60;;
6840;SDS011;3458;53.678;14.080;2022-11-11T08:37:48;11.93;;;4.63;;
6840;SDS011;3458;53.678;14.080;2022-11-11T08:40:14;16.30;;;5.37;;
6840;SDS011;3458;53.678;14.080;2022-11-11T08:42:40;9.50;;;4.60;;
6840;SDS011;3458;53.678;14.080;2022-11-11T08:45:06;14.33;;;4.63;;
6840;SDS011;3458;53.678;14.080;2022-11-11T08:47:33;10.83;;;4.60;;
6840;SDS011;3458;53.678;14.080;2022-11-11T08:49:59;18.57;;;5.93;;
6840;SDS011;3458;53.678;14.080;2022-11-11T08:52:25;12.27;;;4.50;;
6840;SDS011;3458;53.678;14.080;2022-11-11T08:54:50;15.23;;;4.20;;
6840;SDS011;3458;53.678;14.080;2022-11-11T08:57:16;9.77;;;3.90;;
6840;SDS011;3458;53.678;14.080;2022-11-11T08:59:41;14.83;;;4.40;;
6840;SDS011;3458;53.678;14.080;2022-11-11T09:02:11;10.03;;;4.97;;
6840;SDS011;3458;53.678;14.080;2022-11-11T09:04:37;9.93;;;4.93;;
6840;SDS011;3458;53.678;14.080;2022-11-11T09:07:03;7.50;;;4.60;;
6840;SDS011;3458;53.678;14.080;2022-11-11T09:09:29;10.77;;;4.37;;
6840;SDS011;3458;53.678;14.080;2022-11-11T09:11:55;15.37;;;5.00;;
6840;SDS011;3458;53.678;14.080;2022-11-11T09:14:20;17.00;;;4.60;;
6840;SDS011;3458;53.678;14.080;2022-11-11T09:16:46;11.70;;;4.53;;
6840;SDS011;3458;53.678;14.080;2022-11-11T09:19:11;10.80;;;4.50;;
6840;SDS011;3458;53.678;14.080;2022-11-11T09:21:37;12.90;;;4.60;;
6840;SDS011;3458;53.678;14.080;2022-11-11T09:24:02;10.03;;;3.97;;
6840;SDS011;3458;53.678;14.080;2022-11-11T09:26:28;10.70;;;4.40;;
6840;SDS011;3458;53.678;14.080;2022-11-11T09:28:54;10.97;;;4.83;;
6840;SDS011;3458;53.678;14.080;2022-11-11T09:31:19;11.53;;;4.33;;
6840;SDS011;3458;53.678;14.080;2022-11-11T09:33:46;12.20;;;4.93;;
6840;SDS011;3458;53.678;14.080;2022-11-11T09:36:12;11.37;;;5.30;;
6840;SDS011;3458;53.678;14.080;2022-11-11T09:38:37;10.40;;;4.87;;
6840;SDS011;3458;53.678;14.080;2022-11-11T09:41:11;9.47;;;3.97;;
6840;SDS011;3458;53.678;14.080;2022-11-11T09:43:52;16.30;;;4.57;;
6840;SDS011;3458;53.678;14.080;2022-11-11T09:46:22;17.13;;;4.50;;
6840;SDS011;3458;53.678;14.080;2022-11-11T09:49:16;14.63;;;4.40;;
6840;SDS011;3458;53.678;14.080;2022-11-11T09:54:34;10.37;;;4.00;;
6840;SDS011;3458;53.678;14.080;2022-11-11T09:57:21;22.73;;;4.40;;
6840;SDS011;3458;53.678;14.080;2022-11-11T09:59:59;19.73;;;4.43;;
6840;SDS011;3458;53.678;14.080;2022-11-11T10:02:34;14.70;;;4.43;;
6840;SDS011;3458;53.678;14.080;2022-11-11T10:05:11;12.20;;;5.00;;
6840;SDS011;3458;53.678;14.080;2022-11-11T10:07:45;9.13;;;4.00;;
6840;SDS011;3458;53.678;14.080;2022-11-11T10:10:19;9.53;;;3.27;;
6840;SDS011;3458;53.678;14.080;2022-11-11T10:12:55;14.83;;;4.60;;
6840;SDS011;3458;53.678;14.080;2022-11-11T10:15:22;11.10;;;4.47;;
6840;SDS011;3458;53.678;14.080;2022-11-11T10:18:38;13.83;;;4.50;;
6840;SDS011;3458;53.678;14.080;2022-11-11T10:20:54;8.40;;;4.40;;
6840;SDS011;3458;53.678;14.080;2022-11-11T10:23:24;10.77;;;4.90;;
6840;SDS011;3458;53.678;14.080;2022-11-11T10:25:55;16.50;;;4.40;;
6840;SDS011;3458;53.678;14.080;2022-11-11T10:28:25;13.37;;;5.17;;
6840;SDS011;3458;53.678;14.080;2022-11-11T10:30:54;14.90;;;5.00;;
6840;SDS011;3458;53.678;14.080;2022-11-11T10:35:51;13.90;;;5.60;;
6840;SDS011;3458;53.678;14.080;2022-11-11T10:38:38;8.50;;;4.30;;
6840;SDS011;3458;53.678;14.080;2022-11-11T10:41:29;17.13;;;4.93;;
6840;SDS011;3458;53.678;14.080;2022-11-11T10:44:32;17.63;;;4.80;;
6840;SDS011;3458;53.678;14.080;2022-11-11T10:47:04;17.13;;;4.60;;
6840;SDS011;3458;53.678;14.080;2022-11-11T10:49:57;14.50;;;3.93;;
6840;SDS011;3458;53.678;14.080;2022-11-11T10:52:38;11.47;;;4.30;;
6840;SDS011;3458;53.678;14.080;2022-11-11T10:55:18;22.23;;;4.43;;
6840;SDS011;3458;53.678;14.080;2022-11-11T10:57:50;15.77;;;4.93;;
6840;SDS011;3458;53.678;14.080;2022-11-11T11:00:19;11.97;;;4.10;;
6840;SDS011;3458;53.678;14.080;2022-11-11T11:05:46;15.07;;;4.73;;
6840;SDS011;3458;53.678;14.080;2022-11-11T11:08:44;14.83;;;4.47;;
6840;SDS011;3458;53.678;14.080;2022-11-11T11:11:15;15.30;;;4.70;;
6840;SDS011;3458;53.678;14.080;2022-11-11T11:13:48;16.77;;;7.07;;
6840;SDS011;3458;53.678;14.080;2022-11-11T11:16:18;13.20;;;4.73;;
6840;SDS011;3458;53.678;14.080;2022-11-11T11:19:30;9.63;;;4.90;;
6840;SDS011;3458;53.678;14.080;2022-11-11T11:21:59;12.00;;;5.60;;
6840;SDS011;3458;53.678;14.080;2022-11-11T11:24:27;12.97;;;5.77;;
6840;SDS011;3458;53.678;14.080;2022-11-11T11:27:03;12.83;;;4.70;;
6840;SDS011;3458;53.678;14.080;2022-11-11T11:32:11;11.60;;;4.83;;
6840;SDS011;3458;53.678;14.080;2022-11-11T11:34:43;13.67;;;4.90;;
6840;SDS011;3458;53.678;14.080;2022-11-11T11:37:17;12.23;;;5.10;;
6840;SDS011;3458;53.678;14.080;2022-11-11T11:39:44;12.00;;;3.90;;
6840;SDS011;3458;53.678;14.080;2022-11-11T11:45:15;19.90;;;4.60;;
6840;SDS011;3458;53.678;14.080;2022-11-11T11:53:17;10.57;;;5.00;;
6840;SDS011;3458;53.678;14.080;2022-11-11T12:01:24;9.00;;;4.80;;
6840;SDS011;3458;53.678;14.080;2022-11-11T12:07:35;6.80;;;4.37;;
6840;SDS011;3458;53.678;14.080;2022-11-11T12:13:04;11.83;;;5.63;;
6840;SDS011;3458;53.678;14.080;2022-11-11T12:16:04;15.03;;;4.93;;
6840;SDS011;3458;53.678;14.080;2022-11-11T12:21:30;8.67;;;4.60;;
6840;SDS011;3458;53.678;14.080;2022-11-11T12:35:16;12.30;;;6.00;;
6840;SDS011;3458;53.678;14.080;2022-11-11T12:38:05;15.50;;;5.10;;
6840;SDS011;3458;53.678;14.080;2022-11-11T12:40:47;14.67;;;6.20;;
6840;SDS011;3458;53.678;14.080;2022-11-11T12:43:21;11.10;;;5.20;;
6840;SDS011;3458;53.678;14.080;2022-11-11T12:48:38;10.80;;;5.90;;
6840;SDS011;3458;53.678;14.080;2022-11-11T12:51:32;20.80;;;5.50;;
6840;SDS011;3458;53.678;14.080;2022-11-11T12:56:55;14.00;;;5.33;;
6840;SDS011;3458;53.678;14.080;2022-11-11T12:59:39;10.97;;;5.10;;
6840;SDS011;3458;53.678;14.080;2022-11-11T13:02:25;11.67;;;5.73;;
6840;SDS011;3458;53.678;14.080;2022-11-11T13:05:26;14.97;;;6.00;;
6840;SDS011;3458;53.678;14.080;2022-11-11T13:11:01;12.00;;;5.90;;
6840;SDS011;3458;53.678;14.080;2022-11-11T13:13:34;10.67;;;6.30;;
6840;SDS011;3458;53.678;14.080;2022-11-11T13:16:22;13.40;;;5.60;;
6840;SDS011;3458;53.678;14.080;2022-11-11T13:19:05;14.23;;;5.93;;
6840;SDS011;3458;53.678;14.080;2022-11-11T13:21:52;10.50;;;5.07;;
6840;SDS011;3458;53.678;14.080;2022-11-11T13:24:20;10.30;;;5.37;;
6840;SDS011;3458;53.678;14.080;2022-11-11T13:26:48;18.67;;;6.10;;
6840;SDS011;3458;53.678;14.080;2022-11-11T13:29:37;8.37;;;5.10;;
6840;SDS011;3458;53.678;14.080;2022-11-11T13:32:18;6.20;;;4.27;;
6840;SDS011;3458;53.678;14.080;2022-11-11T13:34:50;11.93;;;5.70;;
6840;SDS011;3458;53.678;14.080;2022-11-11T13:37:19;8.20;;;5.43;;
6840;SDS011;3458;53.678;14.080;2022-11-11T13:39:52;22.17;;;6.23;;
6840;SDS011;3458;53.678;14.080;2022-11-11T13:42:27;8.03;;;5.87;;
6840;SDS011;3458;53.678;14.080;2022-11-11T13:45:02;9.53;;;5.27;;
6840;SDS011;3458;53.678;14.080;2022-11-11T13:47:35;9.37;;;5.70;;
6840;SDS011;3458;53.678;14.080;2022-11-11T13:50:12;8.87;;;5.20;;
6840;SDS011;3458;53.678;14.080;2022-11-11T13:52:53;7.90;;;5.00;;
6840;SDS011;3458;53.678;14.080;2022-11-11T13:55:26;6.10;;;4.17;;
6840;SDS011;3458;53.678;14.080;2022-11-11T13:58:06;8.70;;;4.07;;
6840;SDS011;3458;53.678;14.080;2022-11-11T14:00:45;18.63;;;5.57;;
6840;SDS011;3458;53.678;14.080;2022-11-11T14:05:42;9.90;;;5.17;;
6840;SDS011;3458;53.678;14.080;2022-11-11T14:08:08;22.40;;;7.80;;
6840;SDS011;3458;53.678;14.080;2022-11-11T14:15:50;13.70;;;5.63;;
6840;SDS011;3458;53.678;14.080;2022-11-11T14:20:44;10.30;;;5.23;;
6840;SDS011;3458;53.678;14.080;2022-11-11T14:23:14;9.53;;;5.20;;
6840;SDS011;3458;53.678;14.080;2022-11-11T14:25:40;15.23;;;6.50;;
6840;SDS011;3458;53.678;14.080;2022-11-11T14:28:22;6.93;;;5.20;;
6840;SDS011;3458;53.678;14.080;2022-11-11T14:36:21;9.67;;;5.00;;
6840;SDS011;3458;53.678;14.080;2022-11-11T14:39:05;7.60;;;4.70;;
6840;SDS011;3458;53.678;14.080;2022-11-11T14:57:28;10.13;;;4.90;;
6840;SDS011;3458;53.678;14.080;2022-11-11T15:00:00;14.60;;;6.10;;
6840;SDS011;3458;53.678;14.080;2022-11-11T15:02:34;19.87;;;6.37;;
6840;SDS011;3458;53.678;14.080;2022-11-11T15:05:04;12.73;;;5.70;;
6840;SDS011;3458;53.678;14.080;2022-11-11T15:07:41;17.13;;;6.30;;
6840;SDS011;3458;53.678;14.080;2022-11-11T15:10:31;11.57;;;5.50;;
6840;SDS011;3458;53.678;14.080;2022-11-11T15:13:06;7.50;;;4.60;;
6840;SDS011;3458;53.678;14.080;2022-11-11T15:16:22;9.20;;;5.73;;
6840;SDS011;3458;53.678;14.080;2022-11-11T15:18:39;7.80;;;5.23;;
6840;SDS011;3458;53.678;14.080;2022-11-11T15:21:19;12.80;;;6.27;;
6840;SDS011;3458;53.678;14.080;2022-11-11T15:24:11;11.40;;;5.73;;
6840;SDS011;3458;53.678;14.080;2022-11-11T15:26:55;13.23;;;5.60;;
6840;SDS011;3458;53.678;14.080;2022-11-11T15:29:42;11.73;;;5.80;;
6840;SDS011;3458;53.678;14.080;2022-11-11T15:32:25;10.03;;;5.27;;
6840;SDS011;3458;53.678;14.080;2022-11-11T15:35:22;9.00;;;6.33;;
6840;SDS011;3458;53.678;14.080;2022-11-11T15:38:15;13.20;;;6.00;;
6840;SDS011;3458;53.678;14.080;2022-11-11T15:40:47;19.37;;;5.60;;
6840;SDS011;3458;53.678;14.080;2022-11-11T15:43:35;11.57;;;6.80;;
6840;SDS011;3458;53.678;14.080;2022-11-11T15:46:03;12.63;;;7.47;;
6840;SDS011;3458;53.678;14.080;2022-11-11T15:48:34;21.53;;;7.50;;
6840;SDS011;3458;53.678;14.080;2022-11-11T15:53:45;11.33;;;7.00;;
6840;SDS011;3458;53.678;14.080;2022-11-11T15:56:14;16.90;;;7.33;;
6840;SDS011;3458;53.678;14.080;2022-11-11T15:58:54;12.70;;;7.40;;
6840;SDS011;3458;53.678;14.080;2022-11-11T16:01:21;14.57;;;6.80;;
6840;SDS011;3458;53.678;14.080;2022-11-11T16:03:49;12.03;;;6.90;;
6840;SDS011;3458;53.678;14.080;2022-11-11T16:06:15;14.47;;;7.47;;
6840;SDS011;3458;53.678;14.080;2022-11-11T16:08:41;12.00;;;6.73;;
6840;SDS011;3458;53.678;14.080;2022-11-11T16:11:10;13.40;;;6.40;;
6840;SDS011;3458;53.678;14.080;2022-11-11T16:13:39;10.23;;;6.60;;
6840;SDS011;3458;53.678;14.080;2022-11-11T16:16:12;10.00;;;5.80;;
6840;SDS011;3458;53.678;14.080;2022-11-11T16:18:48;11.43;;;6.23;;
6840;SDS011;3458;53.678;14.080;2022-11-11T16:21:19;13.83;;;6.50;;
6840;SDS011;3458;53.678;14.080;2022-11-11T16:23:48;9.97;;;6.47;;
6840;SDS011;3458;53.678;14.080;2022-11-11T16:26:15;9.60;;;5.70;;
6840;SDS011;3458;53.678;14.080;2022-11-11T16:28:48;7.57;;;5.03;;
6840;SDS011;3458;53.678;14.080;2022-11-11T16:33:50;21.27;;;6.10;;
6840;SDS011;3458;53.678;14.080;2022-11-11T16:36:15;13.83;;;6.50;;
6840;SDS011;3458;53.678;14.080;2022-11-11T16:38:41;9.53;;;6.00;;
6840;SDS011;3458;53.678;14.080;2022-11-11T16:44:04;10.53;;;5.90;;
6840;SDS011;3458;53.678;14.080;2022-11-11T16:46:46;16.10;;;6.10;;
6840;SDS011;3458;53.678;14.080;2022-11-11T16:49:59;18.33;;;6.07;;
6840;SDS011;3458;53.678;14.080;2022-11-11T16:52:11;13.43;;;7.00;;
6840;SDS011;3458;53.678;14.080;2022-11-11T16:54:46;15.57;;;6.63;;
6840;SDS011;3458;53.678;14.080;2022-11-11T16:57:20;10.90;;;6.80;;
6840;SDS011;3458;53.678;14.080;2022-11-11T16:59:49;14.23;;;7.07;;